Terminal Aerodrome Forecast
Issued by NWS Indianapolis, IN

Home | Current Version | Previous Version | Text Only | Print | Product List | Glossary On
Versions: 1 2 3 4 5 6 7 8 9 10 11 12 13 14 15 16 17 18 19 20 21 22 23 24 25 26 27 28
206
FTUS43 KIND 140805 AAA
TAFIND
TAF AMD
KIND 140805Z 1408/1512 10006KT P6SM SCT050 OVC100
     FM141300 12010KT 2SM -SN BR SCT018 OVC060
     FM141600 12014KT 1/2SM SN FZFG OVC007
     FM142300 14010KT 4SM -SHSN BR OVC009=

USA.gov is the U.S. government's official web portal to all federal, state and local government web resources and services.